createdAt,value
2018-04-26T00:01:44.441Z,6.20
2018-04-26T00:04:14.044Z,6.43
2018-04-26T00:06:43.624Z,5.83
2018-04-26T00:09:13.191Z,7.53
2018-04-26T00:11:42.757Z,6.57
2018-04-26T00:14:12.321Z,6.77
2018-04-26T00:16:41.817Z,7.07
2018-04-26T00:19:11.366Z,6.27
2018-04-26T00:21:40.844Z,6.30
2018-04-26T00:24:10.374Z,6.13
2018-04-26T00:26:39.903Z,6.03
2018-04-26T00:29:09.556Z,6.10
2018-04-26T00:31:39.068Z,6.17
2018-04-26T00:34:08.633Z,6.53
2018-04-26T00:36:38.204Z,6.10
2018-04-26T00:39:07.708Z,6.87
2018-04-26T00:41:37.255Z,6.67
2018-04-26T00:44:06.789Z,6.43
2018-04-26T00:46:36.301Z,7.30
2018-04-26T00:49:05.859Z,7.37
2018-04-26T00:51:41.209Z,7.30
2018-04-26T00:54:10.686Z,5.67
2018-04-26T00:56:40.285Z,6.67
2018-04-26T00:59:09.863Z,6.53
2018-04-26T01:01:39.427Z,7.43
2018-04-26T01:04:09.017Z,7.77
2018-04-26T01:06:38.560Z,7.47
2018-04-26T01:09:08.089Z,8.47
2018-04-26T01:11:37.645Z,6.57
2018-04-26T01:14:07.367Z,8.27
2018-04-26T01:16:36.940Z,8.27
2018-04-26T01:19:06.492Z,10.23
2018-04-26T01:21:36.020Z,8.50
2018-04-26T01:24:05.858Z,8.63
2018-04-26T01:26:35.408Z,8.47
2018-04-26T01:29:04.956Z,10.63
2018-04-26T01:31:34.570Z,9.00
2018-04-26T01:34:04.244Z,8.60
2018-04-26T01:36:39.665Z,9.00
2018-04-26T01:39:09.190Z,7.83
2018-04-26T01:41:38.705Z,7.60
2018-04-26T01:44:08.457Z,9.17
2018-04-26T01:46:38.084Z,8.30
2018-04-26T01:49:07.632Z,9.53
2018-04-26T01:51:37.166Z,9.20
2018-04-26T01:54:06.993Z,7.97
2018-04-26T01:56:36.552Z,10.07
2018-04-26T01:59:06.141Z,9.03
2018-04-26T02:01:35.697Z,8.80
2018-04-26T02:04:05.325Z,9.23
2018-04-26T02:06:34.954Z,9.93
2018-04-26T02:09:04.517Z,8.97
2018-04-26T02:11:34.083Z,8.83
2018-04-26T02:14:04.711Z,8.37
2018-04-26T02:16:34.281Z,8.80
2018-04-26T02:19:03.869Z,8.40
2018-04-26T02:21:33.425Z,8.37
2018-04-26T02:24:03.138Z,8.50
2018-04-26T02:26:32.771Z,9.83
2018-04-26T02:29:02.309Z,8.33
2018-04-26T02:34:16.006Z,7.30
2018-04-26T02:36:45.626Z,9.47
2018-04-26T02:39:15.184Z,9.73
2018-04-26T02:41:44.717Z,9.00
2018-04-26T02:44:14.432Z,7.00
2018-04-26T02:46:43.989Z,9.30
2018-04-26T02:49:13.528Z,8.10
2018-04-26T02:51:43.272Z,8.63
2018-04-26T02:54:12.903Z,9.03
2018-04-26T02:56:42.475Z,7.97
2018-04-26T02:59:11.958Z,9.93
2018-04-26T03:01:41.490Z,9.23
2018-04-26T03:04:10.988Z,8.03
2018-04-26T03:06:40.616Z,8.10
2018-04-26T03:09:10.136Z,9.03
2018-04-26T03:11:39.641Z,8.80
2018-04-26T03:14:09.205Z,8.57
2018-04-26T03:16:38.747Z,8.80
2018-04-26T03:19:08.254Z,9.13
2018-04-26T03:21:37.737Z,9.27
2018-04-26T03:24:07.292Z,9.20
2018-04-26T03:26:36.774Z,8.63
2018-04-26T03:29:06.306Z,7.70
2018-04-26T03:31:35.825Z,8.60
2018-04-26T03:34:05.322Z,9.60
2018-04-26T03:36:34.999Z,7.77
2018-04-26T03:39:05.322Z,8.00
2018-04-26T03:41:34.864Z,9.53
2018-04-26T03:44:04.444Z,7.50
2018-04-26T03:46:33.976Z,9.97
2018-04-26T03:49:03.530Z,9.70
2018-04-26T03:51:33.029Z,8.63
2018-04-26T03:54:02.562Z,8.40
2018-04-26T03:56:32.086Z,8.77
2018-04-26T03:59:01.597Z,8.57
2018-04-26T04:01:37.018Z,8.30
2018-04-26T04:04:12.330Z,10.00
2018-04-26T04:06:41.868Z,8.50
2018-04-26T04:09:11.389Z,9.20
2018-04-26T04:11:40.926Z,10.83
2018-04-26T04:14:10.404Z,9.63
2018-04-26T04:16:39.899Z,10.70
2018-04-26T04:19:09.447Z,10.20
2018-04-26T04:21:38.964Z,11.13
2018-04-26T04:24:08.624Z,11.10
2018-04-26T04:26:38.160Z,10.10
2018-04-26T04:29:07.686Z,9.87
2018-04-26T04:31:37.173Z,10.03
2018-04-26T04:34:06.682Z,11.03
2018-04-26T04:36:36.293Z,12.00
2018-04-26T04:39:05.860Z,10.03
2018-04-26T04:41:35.405Z,9.77
2018-04-26T04:44:04.908Z,10.07
2018-04-26T04:46:34.456Z,10.33
2018-04-26T04:49:03.963Z,10.50
2018-04-26T04:51:33.651Z,9.70
2018-04-26T04:54:03.144Z,11.27
2018-04-26T04:56:32.673Z,9.53
2018-04-26T04:59:02.213Z,10.77
2018-04-26T05:01:31.746Z,9.53
2018-04-26T05:04:01.267Z,9.90
2018-04-26T05:06:30.790Z,12.87
2018-04-26T05:09:00.349Z,11.27
2018-04-26T05:11:29.917Z,12.83
2018-04-26T05:13:59.637Z,11.43
2018-04-26T05:16:29.176Z,10.43
2018-04-26T05:18:58.677Z,9.63
2018-04-26T05:21:28.204Z,9.30
2018-04-26T05:23:57.704Z,9.57
2018-04-26T05:26:27.260Z,9.23
2018-04-26T05:28:56.759Z,8.97
2018-04-26T05:31:26.291Z,9.80
2018-04-26T05:33:55.820Z,11.30
2018-04-26T05:36:25.404Z,10.10
2018-04-26T05:38:54.978Z,10.10
2018-04-26T05:41:24.480Z,9.73
2018-04-26T05:43:54.237Z,11.00
2018-04-26T05:46:23.760Z,12.37
2018-04-26T05:48:53.419Z,11.20
2018-04-26T05:51:22.946Z,10.80
2018-04-26T05:53:52.521Z,11.20
2018-04-26T05:56:22.229Z,8.83
2018-04-26T05:58:51.777Z,9.40
2018-04-26T06:01:21.305Z,10.37
2018-04-26T06:03:50.819Z,7.90
2018-04-26T06:06:20.338Z,9.00
2018-04-26T06:08:49.820Z,9.53
2018-04-26T06:11:19.329Z,9.20
2018-04-26T06:13:48.992Z,8.97
2018-04-26T06:16:18.580Z,8.13
2018-04-26T06:18:48.120Z,8.17
2018-04-26T06:21:17.685Z,13.00
2018-04-26T06:23:47.273Z,12.03
2018-04-26T06:26:16.840Z,10.67
2018-04-26T06:28:46.400Z,11.53
2018-04-26T06:31:15.922Z,10.70
2018-04-26T06:33:45.466Z,8.77
2018-04-26T06:36:15.003Z,9.67
2018-04-26T06:38:44.490Z,8.80
2018-04-26T06:41:14.036Z,9.33
2018-04-26T06:43:44.531Z,9.77
2018-04-26T06:46:14.103Z,7.53
2018-04-26T06:48:43.656Z,9.53
2018-04-26T06:51:13.176Z,9.87
2018-04-26T06:53:42.889Z,8.13
2018-04-26T06:56:12.524Z,8.93
2018-04-26T06:58:42.071Z,10.50
2018-04-26T07:01:11.692Z,10.10
2018-04-26T07:03:41.283Z,9.13
2018-04-26T07:06:10.940Z,10.53
2018-04-26T07:08:40.477Z,8.90
2018-04-26T07:11:10.037Z,9.17
2018-04-26T07:13:39.821Z,9.53
2018-04-26T07:16:09.380Z,11.30
2018-04-26T07:18:38.924Z,10.00
2018-04-26T07:21:08.475Z,9.77
2018-04-26T07:23:38.011Z,9.60
2018-04-26T07:26:07.598Z,8.53
2018-04-26T07:28:37.128Z,9.40
2018-04-26T07:31:06.699Z,9.70
2018-04-26T07:33:36.250Z,8.30
2018-04-26T07:36:05.770Z,8.93
2018-04-26T07:38:35.332Z,9.07
2018-04-26T07:41:04.858Z,8.90
2018-04-26T07:43:34.384Z,9.23
2018-04-26T07:46:03.897Z,9.93
2018-04-26T07:48:33.468Z,10.40
2018-04-26T07:51:03.100Z,10.93
2018-04-26T07:53:32.641Z,9.63
2018-04-26T07:56:02.204Z,9.67
2018-04-26T07:58:31.770Z,10.80
2018-04-26T08:01:01.383Z,10.73
2018-04-26T08:03:30.916Z,10.27
2018-04-26T08:06:00.480Z,11.90
2018-04-26T08:08:30.138Z,10.63
2018-04-26T08:10:59.845Z,10.70
2018-04-26T08:13:30.254Z,11.83
2018-04-26T08:15:59.785Z,10.47
2018-04-26T08:18:31.693Z,9.67
2018-04-26T08:21:01.315Z,10.90
2018-04-26T08:23:30.930Z,10.27
2018-04-26T08:26:00.415Z,9.40
2018-04-26T08:28:29.986Z,10.70
2018-04-26T08:30:59.521Z,9.93
2018-04-26T08:33:29.081Z,9.83
2018-04-26T08:35:58.621Z,10.53
2018-04-26T08:38:28.239Z,9.97
2018-04-26T08:40:57.809Z,9.77
2018-04-26T08:43:27.342Z,9.50
2018-04-26T08:45:56.903Z,9.67
2018-04-26T08:48:26.397Z,10.77
2018-04-26T08:50:55.885Z,10.60
2018-04-26T08:53:25.421Z,10.30
2018-04-26T08:55:54.929Z,10.60
2018-04-26T08:58:24.446Z,9.90
2018-04-26T09:00:53.973Z,9.20
2018-04-26T09:03:23.492Z,10.90
2018-04-26T09:05:53.026Z,9.33
2018-04-26T09:08:22.555Z,11.13
2018-04-26T09:10:52.090Z,10.37
2018-04-26T09:13:21.659Z,11.30
2018-04-26T09:15:51.176Z,9.73
2018-04-26T09:18:20.713Z,10.63
2018-04-26T09:20:50.245Z,9.27
2018-04-26T09:23:19.773Z,9.57
2018-04-26T09:25:49.290Z,10.70
2018-04-26T09:28:18.764Z,9.83
2018-04-26T09:30:48.289Z,9.23
2018-04-26T09:33:17.854Z,9.50
2018-04-26T09:35:47.390Z,10.37
2018-04-26T09:38:16.893Z,7.40
2018-04-26T09:40:46.422Z,9.60
2018-04-26T09:43:16.015Z,10.60
2018-04-26T09:45:45.580Z,10.17
2018-04-26T09:48:15.109Z,8.67
2018-04-26T09:50:44.736Z,7.80
2018-04-26T09:53:14.365Z,7.10
2018-04-26T09:55:43.954Z,8.00
2018-04-26T09:58:13.463Z,8.83
2018-04-26T10:00:43.007Z,8.20
2018-04-26T10:03:12.555Z,7.23
2018-04-26T10:05:47.735Z,7.80
2018-04-26T10:08:17.266Z,8.70
2018-04-26T10:10:46.806Z,8.10
2018-04-26T10:13:16.340Z,7.33
2018-04-26T10:15:45.872Z,6.80
2018-04-26T10:18:15.424Z,7.17
2018-04-26T10:20:44.948Z,7.33
2018-04-26T10:23:14.495Z,7.37
2018-04-26T10:25:44.065Z,8.10
2018-04-26T10:28:13.614Z,8.50
2018-04-26T10:30:43.118Z,7.20
2018-04-26T10:33:12.616Z,6.80
2018-04-26T10:35:42.183Z,6.90
2018-04-26T10:38:11.699Z,6.73
2018-04-26T10:40:41.468Z,7.63
2018-04-26T10:43:10.942Z,9.97
2018-04-26T10:45:40.484Z,7.23
2018-04-26T10:48:10.000Z,6.60
2018-04-26T10:50:39.678Z,7.13
2018-04-26T10:53:09.350Z,6.03
2018-04-26T10:55:38.844Z,6.13
2018-04-26T10:58:08.362Z,7.10
2018-04-26T11:00:37.881Z,5.90
2018-04-26T11:03:07.427Z,7.00
2018-04-26T11:05:37.004Z,7.63
2018-04-26T11:08:06.528Z,6.27
2018-04-26T11:10:36.057Z,7.70
2018-04-26T11:13:05.583Z,8.40
2018-04-26T11:15:35.128Z,6.63
2018-04-26T11:18:04.665Z,6.20
2018-04-26T11:20:34.215Z,6.93
2018-04-26T11:23:03.757Z,6.27
2018-04-26T11:25:34.448Z,6.37
2018-04-26T11:28:04.003Z,6.00
2018-04-26T11:30:33.499Z,6.60
2018-04-26T11:33:03.004Z,5.97
2018-04-26T11:35:32.583Z,5.83
2018-04-26T11:38:02.122Z,5.83
2018-04-26T11:40:31.675Z,5.37
2018-04-26T11:43:01.241Z,6.03
2018-04-26T11:45:30.785Z,5.40
2018-04-26T11:48:00.336Z,4.90
2018-04-26T11:50:29.838Z,5.07
2018-04-26T11:52:59.342Z,4.10
2018-04-26T11:55:28.896Z,5.20
2018-04-26T11:57:58.449Z,5.03
2018-04-26T12:00:28.079Z,5.63
2018-04-26T12:02:57.604Z,4.43
2018-04-26T12:05:27.102Z,4.97
2018-04-26T12:07:56.608Z,5.10
2018-04-26T12:10:26.144Z,7.00
2018-04-26T12:12:55.691Z,6.60
2018-04-26T12:15:25.229Z,6.03
2018-04-26T12:17:54.749Z,30.00
2018-04-26T12:20:24.304Z,32.70
2018-04-26T12:22:53.813Z,42.43
2018-04-26T12:25:23.353Z,95.17
2018-04-26T12:27:52.948Z,106.68
2018-04-26T12:30:22.499Z,127.10
2018-04-26T12:32:52.100Z,61.08
2018-04-26T12:35:21.656Z,166.80
2018-04-26T12:37:51.206Z,33.20
2018-04-26T12:40:20.717Z,87.53
2018-04-26T12:42:50.209Z,132.07
2018-04-26T12:45:19.761Z,18.62
2018-04-26T12:47:49.444Z,18.52
2018-04-26T12:50:19.061Z,29.87
2018-04-26T12:52:48.610Z,15.05
2018-04-26T12:55:18.116Z,33.85
2018-04-26T12:57:47.684Z,23.37
2018-04-26T13:00:17.401Z,17.67
2018-04-26T13:02:46.977Z,18.25
2018-04-26T13:05:16.590Z,8.52
2018-04-26T13:07:46.088Z,13.27
2018-04-26T13:10:15.826Z,12.52
2018-04-26T13:12:45.360Z,7.20
2018-04-26T13:15:14.935Z,7.97
2018-04-26T13:17:44.510Z,7.00
2018-04-26T13:20:14.021Z,8.48
2018-04-26T13:22:43.553Z,7.03
2018-04-26T13:25:13.113Z,6.57
2018-04-26T13:27:42.660Z,5.93
2018-04-26T13:30:12.240Z,6.12
2018-04-26T13:32:41.762Z,7.97
2018-04-26T13:35:11.301Z,8.80
2018-04-26T13:37:40.836Z,7.62
2018-04-26T13:40:10.368Z,7.85
2018-04-26T13:42:39.896Z,7.25
2018-04-26T13:45:09.433Z,7.15
2018-04-26T13:47:38.984Z,7.80
2018-04-26T13:50:08.524Z,7.78
2018-04-26T13:52:38.027Z,6.32
2018-04-26T13:55:07.507Z,5.55
2018-04-26T13:57:37.009Z,6.57
2018-04-26T14:00:06.772Z,5.00
2018-04-26T14:02:36.361Z,5.80
2018-04-26T14:05:05.861Z,5.65
2018-04-26T14:07:35.382Z,6.05
2018-04-26T14:10:04.928Z,6.47
2018-04-26T14:12:34.497Z,5.07
2018-04-26T14:15:04.096Z,5.62
2018-04-26T14:17:33.629Z,4.97
2018-04-26T14:20:03.252Z,4.82
2018-04-26T14:22:32.753Z,5.68
2018-04-26T14:25:02.548Z,7.40
2018-04-26T14:27:32.216Z,8.57
2018-04-26T14:30:01.800Z,5.47
2018-04-26T14:32:31.335Z,5.43
2018-04-26T14:35:00.965Z,4.62
2018-04-26T14:37:30.538Z,4.40
2018-04-26T14:40:00.027Z,3.72
2018-04-26T14:42:29.573Z,4.03
2018-04-26T14:44:59.149Z,5.65
2018-04-26T14:47:28.672Z,4.62
2018-04-26T14:49:58.155Z,4.78
2018-04-26T14:52:27.732Z,3.83
2018-04-26T14:54:57.310Z,4.43
2018-04-26T14:57:26.845Z,3.80
2018-04-26T14:59:56.457Z,4.07
2018-04-26T15:02:26.044Z,4.57
2018-04-26T15:04:55.629Z,4.05
2018-04-26T15:07:25.260Z,3.83
2018-04-26T15:09:54.787Z,3.30
2018-04-26T15:12:24.466Z,3.10
2018-04-26T15:14:54.081Z,3.25
2018-04-26T15:17:23.589Z,3.35
2018-04-26T15:19:53.148Z,4.07
2018-04-26T15:22:22.721Z,4.03
2018-04-26T15:24:52.279Z,4.25
2018-04-26T15:27:21.868Z,3.53
2018-04-26T15:29:51.430Z,3.08
2018-04-26T15:32:21.006Z,4.20
2018-04-26T15:34:50.488Z,3.45
2018-04-26T15:37:20.022Z,3.83
2018-04-26T15:39:49.583Z,3.90
2018-04-26T15:42:19.151Z,3.47
2018-04-26T15:44:48.677Z,3.42
2018-04-26T15:47:18.242Z,3.72
2018-04-26T15:49:47.948Z,3.62
2018-04-26T15:52:23.341Z,3.62
2018-04-26T15:54:58.751Z,3.62
2018-04-26T15:57:48.690Z,3.50
2018-04-26T16:00:34.094Z,3.33
2018-04-26T16:03:09.489Z,3.55
2018-04-26T16:05:44.719Z,3.80
2018-04-26T16:08:25.872Z,3.83
2018-04-26T16:11:06.827Z,2.67
2018-04-26T16:13:47.928Z,3.40
2018-04-26T16:16:28.993Z,3.58
2018-04-26T16:19:04.437Z,3.15
2018-04-26T16:21:39.749Z,3.30
2018-04-26T16:24:20.950Z,2.95
2018-04-26T16:27:02.066Z,2.87
2018-04-26T16:29:40.051Z,3.42
2018-04-26T16:32:21.193Z,2.97
2018-04-26T16:34:56.465Z,3.78
2018-04-26T16:37:37.516Z,3.80
2018-04-26T16:40:07.043Z,5.63
2018-04-26T16:42:36.606Z,3.20
2018-04-26T16:45:06.128Z,3.70
2018-04-26T16:47:35.708Z,3.50
2018-04-26T16:50:05.209Z,5.30
2018-04-26T16:52:34.896Z,4.90
2018-04-26T16:55:04.915Z,4.50
2018-04-26T16:57:34.477Z,4.03
2018-04-26T17:00:04.056Z,4.70
2018-04-26T17:02:33.594Z,5.77
2018-04-26T17:05:03.280Z,5.27
2018-04-26T17:07:32.807Z,5.23
2018-04-26T17:10:02.395Z,5.67
2018-04-26T17:12:31.973Z,6.57
2018-04-26T17:15:01.532Z,6.40
2018-04-26T17:17:31.083Z,6.27
2018-04-26T17:20:00.656Z,6.30
2018-04-26T17:22:30.220Z,6.43
2018-04-26T17:24:59.772Z,6.57
2018-04-26T17:27:29.311Z,7.30
2018-04-26T17:29:59.055Z,7.77
2018-04-26T17:32:28.531Z,6.40
2018-04-26T17:34:58.078Z,6.80
2018-04-26T17:37:27.595Z,7.83
2018-04-26T17:39:57.137Z,6.20
2018-04-26T17:42:26.750Z,6.60
2018-04-26T17:44:56.377Z,5.93
2018-04-26T17:47:25.945Z,6.40
2018-04-26T17:49:55.510Z,7.30
2018-04-26T17:52:25.134Z,5.13
2018-04-26T17:54:54.675Z,6.10
2018-04-26T17:57:24.220Z,5.90
2018-04-26T17:59:53.806Z,6.23
2018-04-26T18:02:23.342Z,5.10
2018-04-26T18:04:52.855Z,5.40
2018-04-26T18:07:22.480Z,5.60
2018-04-26T18:09:52.010Z,5.80
2018-04-26T18:12:21.521Z,5.93
2018-04-26T18:14:51.174Z,6.03
2018-04-26T18:17:20.688Z,6.23
2018-04-26T18:19:50.386Z,5.80
2018-04-26T18:22:19.926Z,5.43
2018-04-26T18:24:49.446Z,5.80
2018-04-26T18:27:18.981Z,5.90
2018-04-26T18:29:48.492Z,5.60
2018-04-26T18:32:18.960Z,5.80
2018-04-26T18:34:48.824Z,5.47
2018-04-26T18:37:18.361Z,5.07
2018-04-26T18:39:47.871Z,5.20
2018-04-26T18:42:17.430Z,6.13
2018-04-26T18:44:46.972Z,5.57
2018-04-26T18:47:16.447Z,5.60
2018-04-26T18:49:46.013Z,6.67
2018-04-26T18:52:15.756Z,5.43
2018-04-26T18:54:45.288Z,6.63
2018-04-26T18:57:14.801Z,5.57
2018-04-26T18:59:44.767Z,6.40
2018-04-26T19:02:14.665Z,5.57
2018-04-26T19:04:44.424Z,4.87
2018-04-26T19:07:14.239Z,5.20
2018-04-26T19:09:43.753Z,5.47
2018-04-26T19:12:13.460Z,5.60
2018-04-26T19:14:43.329Z,5.67
2018-04-26T19:17:12.888Z,4.90
2018-04-26T19:19:42.446Z,5.67
2018-04-26T19:22:11.951Z,5.80
2018-04-26T19:24:41.703Z,6.07
2018-04-26T19:27:11.244Z,5.70
2018-04-26T19:29:40.791Z,6.00
2018-04-26T19:32:10.602Z,6.40
2018-04-26T19:34:40.277Z,6.60
2018-04-26T19:37:09.824Z,6.40
2018-04-26T19:39:39.377Z,6.37
2018-04-26T19:42:09.150Z,5.77
2018-04-26T19:44:38.712Z,6.40
2018-04-26T19:47:08.291Z,6.40
2018-04-26T19:49:38.484Z,6.13
2018-04-26T19:52:08.201Z,6.47
2018-04-26T19:54:37.701Z,7.00
2018-04-26T19:57:07.467Z,7.20
2018-04-26T19:59:37.051Z,6.10
2018-04-26T20:02:06.785Z,6.47
2018-04-26T20:04:36.544Z,6.27
2018-04-26T20:07:06.138Z,6.07
2018-04-26T20:09:35.684Z,6.77
2018-04-26T20:12:05.606Z,6.50
2018-04-26T20:14:35.357Z,6.60
2018-04-26T20:17:04.919Z,6.93
2018-04-26T20:19:34.480Z,7.07
2018-04-26T20:22:04.312Z,5.77
2018-04-26T20:24:34.009Z,5.83
2018-04-26T20:27:03.821Z,6.50
2018-04-26T20:29:33.699Z,6.30
2018-04-26T20:32:04.418Z,6.87
2018-04-26T20:34:34.265Z,5.83
2018-04-26T20:37:03.963Z,7.43
2018-04-26T20:39:33.746Z,6.77
2018-04-26T20:42:03.438Z,7.00
2018-04-26T20:44:38.888Z,7.27
2018-04-26T20:47:08.480Z,6.40
2018-04-26T20:49:38.068Z,7.97
2018-04-26T20:52:07.945Z,7.10
2018-04-26T20:54:37.649Z,6.90
2018-04-26T20:57:07.235Z,7.23
2018-04-26T20:59:36.891Z,8.20
2018-04-26T21:02:06.652Z,7.20
2018-04-26T21:04:36.490Z,7.40
2018-04-26T21:07:06.259Z,7.27
2018-04-26T21:09:35.976Z,7.77
2018-04-26T21:12:05.571Z,8.03
2018-04-26T21:14:35.162Z,8.27
2018-04-26T21:17:04.812Z,8.50
2018-04-26T21:19:34.582Z,7.47
2018-04-26T21:22:04.220Z,7.80
2018-04-26T21:24:33.861Z,7.10
2018-04-26T21:27:03.457Z,7.30
2018-04-26T21:29:32.980Z,8.20
2018-04-26T21:32:02.716Z,8.20
2018-04-26T21:34:32.509Z,7.17
2018-04-26T21:37:02.071Z,8.90
2018-04-26T21:39:31.568Z,8.17
2018-04-26T21:42:01.132Z,8.77
2018-04-26T21:44:30.805Z,8.77
2018-04-26T21:47:00.324Z,9.40
2018-04-26T21:49:29.418Z,10.90
2018-04-26T21:52:05.193Z,9.73
2018-04-26T21:54:40.672Z,10.40
2018-04-26T21:57:15.962Z,10.93
2018-04-26T21:59:51.186Z,10.70
2018-04-26T22:02:22.117Z,10.10
2018-04-26T22:05:08.505Z,11.50
2018-04-26T22:07:38.195Z,11.43
2018-04-26T22:10:07.721Z,11.97
2018-04-26T22:12:37.294Z,10.50
2018-04-26T22:15:06.927Z,12.70
2018-04-26T22:17:36.449Z,11.20
2018-04-26T22:20:05.993Z,12.67
2018-04-26T22:22:35.636Z,13.03
2018-04-26T22:25:05.158Z,13.40
2018-04-26T22:27:34.683Z,13.90
2018-04-26T22:30:04.184Z,14.50
2018-04-26T22:32:33.680Z,14.10
2018-04-26T22:35:03.158Z,13.70
2018-04-26T22:37:32.676Z,14.80
2018-04-26T22:40:02.170Z,14.60
2018-04-26T22:42:31.704Z,13.57
2018-04-26T22:45:02.096Z,14.20
2018-04-26T22:47:31.648Z,12.30
2018-04-26T22:50:01.167Z,14.03
2018-04-26T22:52:30.655Z,14.50
2018-04-26T22:55:00.212Z,14.00
2018-04-26T22:57:29.777Z,14.07
2018-04-26T22:59:59.319Z,13.50
2018-04-26T23:02:28.823Z,13.93
2018-04-26T23:04:58.282Z,12.53
2018-04-26T23:07:27.887Z,13.70
2018-04-26T23:09:57.440Z,13.40
2018-04-26T23:12:26.967Z,12.67
2018-04-26T23:14:56.494Z,13.90
2018-04-26T23:17:26.037Z,14.43
2018-04-26T23:19:55.584Z,12.50
2018-04-26T23:22:25.315Z,14.50
2018-04-26T23:24:54.926Z,15.47
2018-04-26T23:27:24.429Z,15.30
2018-04-26T23:29:53.976Z,13.77
2018-04-26T23:32:23.740Z,14.10
2018-04-26T23:34:53.316Z,14.20
2018-04-26T23:37:22.872Z,14.70
2018-04-26T23:39:52.424Z,14.20
2018-04-26T23:42:21.981Z,15.20
2018-04-26T23:44:51.487Z,14.30
2018-04-26T23:47:20.997Z,15.90
2018-04-26T23:49:50.533Z,13.60
2018-04-26T23:52:20.041Z,14.47
2018-04-26T23:54:49.544Z,14.50
2018-04-26T23:57:19.050Z,14.57
2018-04-26T23:59:48.579Z,14.30
